Terminal Aerodrome Forecast
Issued by NWS Northern Indiana

Home | Current Version | Previous Version | Graphics & Text | Print | Product List | Glossary On
Versions: 1 2 3 4 5 6 7 8 9 10 11
527
FTUS43 KIWX 230520
TAFFWA
TAF
KFWA 230520Z 2306/2406 07005KT P6SM SKC
     FM232000 16005KT P6SM SKC=

USA.gov is the U.S. government's official web portal to all federal, state and local government web resources and services.